Time;durP1;ratioP1;P1;durP2;ratioP2;P2;SDS_P1;SDS_P2;PMS_P1;PMS_P2;Temp;Humidity;BMP_temperature;BMP_pressure;BME280_temperature;BME280_humidity;BME280_pressure;Samples;Min_cycle;Max_cycle;Signal;HPM_P1;HPM_P2
2022/02/09 00:07:37;;;;;;;11.77;4.83;;;;;;;12.37;53.49;98837.28;5031455;28;20952;-70
2022/02/09 00:10:03;;;;;;;16.10;4.97;;;;;;;12.29;53.85;98830.00;5030795;28;20505;-69
2022/02/09 00:13:03;;;;;;;12.53;5.43;;;;;;;12.31;54.04;98828.09;5031039;28;20429;-68
2022/02/09 00:20:38;;;;;;;13.00;4.50;;;;;;;12.34;53.91;98833.13;5030908;28;20465;-69
2022/02/09 00:23:40;;;;;;;11.53;4.50;;;;;;;12.39;53.81;98838.00;5033535;28;20222;-68
2022/02/09 01:38:14;;;;;;;8.73;3.50;;;;;;;12.12;53.32;98808.53;5033983;28;20430;-68
2022/02/09 01:56:52;;;;;;;9.53;4.10;;;;;;;12.24;51.23;98798.84;5033520;28;20440;-68
2022/02/09 01:59:18;;;;;;;11.47;3.80;;;;;;;12.22;51.35;98786.78;5033577;28;20430;-68
2022/02/09 02:01:43;;;;;;;7.20;3.53;;;;;;;12.21;50.65;98793.00;5033209;28;20267;-68
2022/02/09 02:04:09;;;;;;;10.43;3.60;;;;;;;12.19;51.06;98792.28;5033260;28;20204;-68
2022/02/09 02:06:35;;;;;;;7.77;3.27;;;;;;;12.24;50.82;98784.84;5033357;28;20188;-68
2022/02/09 02:09:01;;;;;;;11.47;4.50;;;;;;;12.28;50.48;98786.28;5015514;28;20648;-68
2022/02/09 02:11:32;;;;;;;6.50;3.47;;;;;;;12.27;49.95;98779.34;5033348;28;20457;-68
2022/02/09 02:16:45;;;;;;;10.23;4.30;;;;;;;12.12;50.35;98774.38;5033010;28;20929;-69
2022/02/09 02:19:26;;;;;;;6.07;3.27;;;;;;;12.08;50.70;98767.72;5032811;28;20431;-69
2022/02/09 02:30:08;;;;;;;8.47;3.60;;;;;;;12.15;50.10;98760.16;5052836;28;20425;-68
2022/02/09 02:32:58;;;;;;;10.03;4.10;;;;;;;12.05;50.41;98759.22;5025434;28;20434;-68
2022/02/09 02:44:37;;;;;;;9.47;3.50;;;;;;;12.27;49.76;98743.41;4971280;28;20461;-68
2022/02/09 03:13:57;;;;;;;5.43;2.80;;;;;;;12.18;50.80;98748.56;4951271;28;20218;-68
2022/02/09 03:16:30;;;;;;;5.20;2.80;;;;;;;12.24;50.60;98743.63;4955314;28;20552;-68
2022/02/09 03:22:08;;;;;;;10.83;2.97;;;;;;;12.27;51.11;98732.88;4990733;28;20992;-68
2022/02/09 03:24:52;;;;;;;5.87;3.10;;;;;;;12.35;51.08;98734.03;4973516;28;20972;-68
2022/02/09 03:49:06;;;;;;;5.77;2.70;;;;;;;12.16;50.32;98717.13;5015663;28;20901;-68
2022/02/09 03:57:03;;;;;;;8.80;3.30;;;;;;;12.30;49.33;98713.38;5031491;28;20419;-68
2022/02/09 03:59:31;;;;;;;5.53;2.57;;;;;;;12.27;49.84;98716.25;5031645;28;20417;-68
2022/02/09 04:01:58;;;;;;;8.27;2.87;;;;;;;12.29;49.64;98719.59;5031233;28;20423;-68
2022/02/09 04:04:23;;;;;;;11.40;2.77;;;;;;;12.25;49.68;98713.75;5031338;28;20449;-68
2022/02/09 04:06:51;;;;;;;5.77;2.90;;;;;;;12.20;50.39;98720.38;5031201;28;20918;-69
2022/02/09 04:09:20;;;;;;;8.80;3.23;;;;;;;12.29;50.86;98706.47;5031286;28;20195;-69
2022/02/09 04:11:52;;;;;;;2.73;2.30;;;;;;;12.34;50.74;98706.94;5030832;28;21018;-69
2022/02/09 04:49:07;;;;;;;6.00;3.00;;;;;;;12.12;52.56;98708.66;5054124;28;20910;-68
2022/02/09 04:57:05;;;;;;;8.13;2.90;;;;;;;11.97;52.20;98709.91;5053204;28;20850;-68
2022/02/09 04:59:43;;;;;;;4.17;2.53;;;;;;;11.98;52.06;98704.53;5051319;28;20406;-68
2022/02/09 05:02:40;;;;;;;5.07;2.23;;;;;;;11.99;50.87;98708.00;5026900;28;20792;-68
2022/02/09 05:26:20;;;;;;;6.80;3.20;;;;;;;11.83;50.98;98703.97;5036979;28;20180;-69
2022/02/09 05:28:45;;;;;;;7.03;2.70;;;;;;;11.82;50.75;98697.03;5043002;28;20463;-68
2022/02/09 05:31:11;;;;;;;7.87;2.80;;;;;;;11.70;51.26;98697.19;5053975;28;20545;-68
2022/02/09 05:33:36;;;;;;;6.77;3.43;;;;;;;11.72;51.28;98690.03;5051517;28;20230;-68
2022/02/09 05:36:02;;;;;;;5.90;3.00;;;;;;;11.70;51.34;98692.78;5045543;28;20179;-69
2022/02/09 05:38:27;;;;;;;5.73;2.53;;;;;;;11.77;51.72;98693.94;5053689;28;20179;-68
2022/02/09 05:40:53;;;;;;;7.80;2.90;;;;;;;11.90;51.11;98700.84;5053372;28;20203;-68
2022/02/09 05:43:20;;;;;;;8.20;3.70;;;;;;;11.94;50.64;98710.97;5044487;28;20199;-68
2022/02/09 05:50:52;;;;;;;6.17;3.43;;;;;;;11.91;51.00;98702.50;5053041;28;20784;-69
2022/02/09 05:53:24;;;;;;;7.97;3.80;;;;;;;11.97;50.72;98699.41;5044752;28;20987;-69
2022/02/09 06:00:55;;;;;;;9.40;3.53;;;;;;;11.76;50.90;98708.03;5041439;28;20222;-69
2022/02/09 06:03:21;;;;;;;7.50;3.63;;;;;;;11.70;50.90;98703.28;5038629;28;20441;-68
2022/02/09 06:05:47;;;;;;;8.80;3.13;;;;;;;11.74;51.28;98709.13;5050782;28;20638;-68
2022/02/09 06:08:12;;;;;;;6.47;3.70;;;;;;;11.76;50.95;98705.41;5050208;28;20187;-68
2022/02/09 06:10:40;;;;;;;6.50;3.73;;;;;;;11.74;50.63;98715.19;5022803;28;20933;-68
2022/02/09 06:21:02;;;;;;;10.87;3.60;;;;;;;11.73;50.70;98710.06;5040803;28;20490;-68
2022/02/09 06:23:29;;;;;;;5.57;3.20;;;;;;;11.71;50.41;98718.09;5034253;28;20469;-68
2022/02/09 06:25:55;;;;;;;12.50;4.00;;;;;;;11.67;50.22;98712.22;5051364;28;20495;-68
2022/02/09 06:28:20;;;;;;;8.43;3.37;;;;;;;11.71;50.46;98714.63;5052673;28;20437;-68
2022/02/09 06:30:46;;;;;;;7.80;3.60;;;;;;;11.73;50.40;98716.16;5043527;28;20180;-68
2022/02/09 06:33:12;;;;;;;12.40;3.57;;;;;;;11.78;50.48;98719.25;5052392;28;20209;-68
2022/02/09 06:35:38;;;;;;;11.50;3.87;;;;;;;11.76;50.40;98729.03;5043038;28;20198;-68
2022/02/09 06:38:03;;;;;;;8.73;4.00;;;;;;;11.71;50.43;98723.34;5053130;28;20916;-68
2022/02/09 06:40:29;;;;;;;6.70;3.30;;;;;;;11.68;50.51;98715.69;5053056;28;20203;-69
2022/02/09 06:42:55;;;;;;;9.33;3.63;;;;;;;11.62;50.64;98727.53;5052276;28;20207;-68
2022/02/09 06:45:24;;;;;;;7.30;4.00;;;;;;;11.42;51.00;98721.22;5052789;28;20194;-68
2022/02/09 06:47:50;;;;;;;11.90;4.13;;;;;;;11.52;51.36;98721.34;5052316;28;20282;-68
2022/02/09 06:50:34;;;;;;;7.07;3.17;;;;;;;11.36;51.30;98719.06;5052467;28;20734;-68
2022/02/09 06:53:14;;;;;;;6.27;3.50;;;;;;;11.51;50.76;98720.50;5052155;28;20449;-68
2022/02/09 06:55:55;;;;;;;9.77;4.57;;;;;;;11.53;50.72;98725.63;5052513;28;20452;-67
2022/02/09 06:58:41;;;;;;;9.33;5.00;;;;;;;11.56;50.72;98720.13;5052521;28;20431;-69
2022/02/09 07:01:07;;;;;;;7.30;4.20;;;;;;;11.53;50.61;98715.97;5043773;28;21162;-71
2022/02/09 07:03:33;;;;;;;9.10;4.17;;;;;;;11.38;50.32;98717.16;5052129;28;20536;-69
2022/02/09 07:05:59;;;;;;;10.20;4.70;;;;;;;11.38;50.96;98719.78;5046487;28;20434;-69
2022/02/09 07:08:24;;;;;;;7.70;3.93;;;;;;;11.36;50.95;98712.03;5052286;28;20426;-69
2022/02/09 07:10:50;;;;;;;10.17;3.90;;;;;;;11.33;50.68;98717.53;5051924;28;20230;-69
2022/02/09 07:13:15;;;;;;;7.00;3.53;;;;;;;11.31;51.02;98708.94;5052428;28;20667;-69
2022/02/09 07:15:46;;;;;;;10.07;4.20;;;;;;;11.31;51.15;98706.31;5050667;28;20192;-69
2022/02/09 07:18:13;;;;;;;13.50;6.20;;;;;;;11.24;51.14;98717.41;5052397;28;20179;-69
2022/02/09 07:20:56;;;;;;;17.73;5.80;;;;;;;11.20;51.42;98717.66;5051922;28;20457;-68
2022/02/09 07:25:59;;;;;;;11.17;5.40;;;;;;;10.98;52.08;98710.59;5051810;28;20429;-69
2022/02/09 07:28:25;;;;;;;12.80;7.57;;;;;;;11.08;51.84;98713.38;5051804;28;20190;-69
2022/02/09 07:30:50;;;;;;;21.73;6.10;;;;;;;11.05;51.95;98713.59;5035896;28;20431;-68
2022/02/09 07:33:16;;;;;;;10.60;5.20;;;;;;;11.05;50.97;98716.22;5029635;28;20206;-68
2022/02/09 07:35:41;;;;;;;11.73;4.17;;;;;;;11.12;50.73;98714.78;5060410;28;20642;-68
2022/02/09 07:38:07;;;;;;;9.60;4.40;;;;;;;11.07;50.54;98712.50;5065567;28;20186;-68
2022/02/09 07:40:32;;;;;;;22.77;6.00;;;;;;;11.10;51.11;98711.44;5066481;28;20286;-69
2022/02/09 07:43:04;;;;;;;18.30;5.07;;;;;;;11.09;50.96;98704.50;5062382;28;20697;-69
2022/02/09 07:50:50;;;;;;;11.23;4.50;;;;;;;11.08;51.00;98710.75;5054227;28;20435;-70
2022/02/09 07:55:46;;;;;;;12.50;5.20;;;;;;;11.10;50.67;98710.63;5052428;28;20437;-70
2022/02/09 07:58:12;;;;;;;12.57;4.30;;;;;;;11.18;50.82;98701.19;5058678;28;20421;-69
2022/02/09 08:00:37;;;;;;;12.37;4.70;;;;;;;11.14;49.50;98702.38;5061851;28;20572;-69
2022/02/09 08:03:04;;;;;;;16.07;6.70;;;;;;;11.24;50.34;98702.50;5059234;28;20207;-69
2022/02/09 08:05:31;;;;;;;8.40;5.10;;;;;;;11.30;49.83;98695.94;5050816;28;20183;-69
2022/02/09 08:07:56;;;;;;;12.33;4.80;;;;;;;11.26;49.72;98690.09;5051478;28;20775;-68
2022/02/09 08:10:28;;;;;;;9.60;4.07;;;;;;;11.37;49.99;98686.63;5044758;28;20462;-68
2022/02/09 08:29:21;;;;;;;9.23;5.20;;;;;;;13.47;46.03;98680.78;5047592;28;20429;-69
2022/02/09 08:32:35;;;;;;;8.67;5.07;;;;;;;13.89;46.13;98675.28;5040608;28;20421;-69
2022/02/09 08:34:34;;;;;;;10.53;5.03;;;;;;;14.26;45.24;98664.06;5050653;28;20597;-69
2022/02/09 08:36:59;;;;;;;12.07;4.90;;;;;;;14.48;43.63;98666.53;5043644;28;20513;-68
2022/02/09 08:39:25;;;;;;;6.97;3.90;;;;;;;14.65;43.38;98662.31;5050896;28;20179;-69
2022/02/09 08:41:52;;;;;;;15.93;4.00;;;;;;;14.77;43.06;98655.94;5050593;28;20191;-68
2022/02/09 08:44:18;;;;;;;9.93;3.60;;;;;;;14.84;42.93;98662.31;5047235;28;20742;-69
2022/02/09 08:46:43;;;;;;;7.53;3.63;;;;;;;14.97;42.87;98655.88;5047923;28;20433;-70
2022/02/09 08:49:10;;;;;;;7.57;3.50;;;;;;;15.17;42.85;98656.63;5050509;28;20248;-68
2022/02/09 08:51:35;;;;;;;8.00;3.30;;;;;;;15.30;42.62;98657.13;5050848;28;20178;-68
2022/02/09 08:54:01;;;;;;;7.00;4.00;;;;;;;15.39;41.56;98660.66;5032295;28;20438;-68
2022/02/09 08:56:28;;;;;;;7.93;3.50;;;;;;;15.42;41.56;98647.16;5050491;28;20194;-68
2022/02/09 08:58:54;;;;;;;8.23;3.80;;;;;;;15.76;41.93;98643.88;5050557;28;20202;-68
2022/02/09 09:01:31;;;;;;;8.27;3.10;;;;;;;16.03;41.07;98642.16;5050439;28;20463;-67
2022/02/09 09:03:59;;;;;;;5.97;3.03;;;;;;;16.16;40.61;98646.25;5049995;28;21058;-68
2022/02/09 09:06:27;;;;;;;7.83;3.10;;;;;;;16.09;40.23;98646.03;5027121;28;20777;-68
2022/02/09 10:02:07;;;;;;;12.90;4.47;;;;;;;18.81;33.80;98614.16;5052827;28;20430;-68
2022/02/09 10:35:28;;;;;;;4.43;2.77;;;;;;;20.88;30.99;98596.75;5050007;28;20682;-68
2022/02/09 10:37:56;;;;;;;5.27;2.33;;;;;;;21.05;30.40;98592.03;5024919;28;20493;-68
2022/02/09 10:40:35;;;;;;;6.00;2.67;;;;;;;21.13;30.65;98583.13;5032751;28;20565;-67
2022/02/09 10:43:03;;;;;;;4.77;2.67;;;;;;;21.15;30.70;98581.09;5052021;28;20470;-68
2022/02/09 10:45:47;;;;;;;9.03;2.50;;;;;;;21.23;30.13;98574.81;5052764;28;20452;-68
2022/02/09 10:48:36;;;;;;;4.63;2.80;;;;;;;21.44;30.35;98568.66;5035040;28;20426;-69
2022/02/09 10:51:50;;;;;;;5.60;2.70;;;;;;;21.62;30.00;98566.44;5044976;28;20830;-68
2022/02/09 10:54:25;;;;;;;6.27;2.40;;;;;;;21.51;30.04;98553.59;5033672;28;20802;-68
2022/02/09 10:56:58;;;;;;;3.53;2.30;;;;;;;21.65;30.02;98545.75;5028258;28;20426;-68
2022/02/09 10:59:25;;;;;;;3.77;2.27;;;;;;;21.80;30.02;98546.47;5042374;28;20417;-70
2022/02/09 11:01:52;;;;;;;3.50;2.37;;;;;;;21.94;29.22;98537.56;5052409;28;20544;-69
2022/02/09 11:04:18;;;;;;;5.17;2.30;;;;;;;21.74;29.22;98531.25;5032623;28;20454;-69
2022/02/09 11:06:45;;;;;;;3.17;1.87;;;;;;;21.83;29.76;98521.25;5032640;28;20473;-69
2022/02/09 11:09:13;;;;;;;3.70;2.00;;;;;;;21.43;29.69;98529.69;5037160;28;20450;-69
2022/02/09 11:11:41;;;;;;;2.90;1.90;;;;;;;21.44;30.32;98520.69;5033453;28;20430;-68
2022/02/09 11:14:14;;;;;;;3.63;1.80;;;;;;;21.40;30.09;98512.25;5045182;28;20446;-68
2022/02/09 11:16:42;;;;;;;3.27;1.70;;;;;;;21.43;30.12;98509.19;5034456;28;20476;-68
2022/02/09 11:19:09;;;;;;;3.40;1.60;;;;;;;21.43;30.68;98503.88;5044594;28;20434;-69
2022/02/09 11:21:37;;;;;;;3.50;2.10;;;;;;;21.59;30.46;98504.63;5048190;28;20466;-69
2022/02/09 11:24:32;;;;;;;4.33;1.70;;;;;;;21.91;30.36;98499.75;5040916;28;20445;-68
2022/02/09 11:27:13;;;;;;;4.80;1.63;;;;;;;22.05;29.82;98495.38;5034408;28;20801;-68
2022/02/09 11:29:56;;;;;;;4.30;1.80;;;;;;;21.82;30.04;98498.25;5051485;28;20544;-69
2022/02/09 11:32:30;;;;;;;4.80;1.80;;;;;;;21.82;29.81;98492.94;5046916;28;20459;-69
2022/02/09 11:37:36;;;;;;;1.87;1.70;;;;;;;21.98;29.10;98491.81;5045982;28;20426;-69
2022/02/09 11:40:34;;;;;;;2.87;1.87;;;;;;;21.30;30.18;98488.53;5051476;28;20211;-68
2022/02/09 12:08:53;;;;;;;1.53;1.13;;;;;;;22.52;29.36;98459.09;4912716;29;20188;-69
2022/02/09 12:11:34;;;;;;;3.10;1.03;;;;;;;22.70;29.41;98463.03;4912689;29;20487;-68
2022/02/09 12:16:45;;;;;;;7.47;3.30;;;;;;;23.31;29.23;98456.03;4912794;29;20515;-69
2022/02/09 12:19:23;;;;;;;5.30;2.57;;;;;;;23.51;28.97;98444.50;4912379;29;20207;-69
2022/02/09 12:24:21;;;;;;;3.47;2.17;;;;;;;22.98;28.69;98435.38;4911748;29;20470;-69
2022/02/09 12:27:11;;;;;;;7.70;2.83;;;;;;;22.88;29.28;98429.59;4912545;29;20432;-70
2022/02/09 12:29:42;;;;;;;4.70;1.90;;;;;;;22.91;29.17;98431.88;4934380;28;20524;-71
2022/02/09 12:32:14;;;;;;;4.43;1.63;;;;;;;22.98;28.95;98424.69;5034888;28;20584;-69
2022/02/09 12:34:43;;;;;;;3.70;1.90;;;;;;;23.09;28.79;98429.41;5050491;28;20819;-69
2022/02/09 12:37:12;;;;;;;5.10;2.13;;;;;;;23.26;29.17;98421.84;5045281;28;20438;-69
2022/02/09 12:39:52;;;;;;;6.80;2.20;;;;;;;23.27;29.04;98412.81;5050351;28;20942;-69
2022/02/09 12:42:19;;;;;;;1.80;1.50;;;;;;;23.23;28.68;98421.44;5050315;28;20453;-69
2022/02/09 12:45:17;;;;;;;1.90;1.30;;;;;;;23.02;29.02;98408.03;5027947;28;20438;-69
2022/02/09 12:47:49;;;;;;;1.50;1.20;;;;;;;23.07;29.44;98407.41;4969419;28;20468;-69
2022/02/09 12:50:23;;;;;;;3.00;1.70;;;;;;;23.02;29.50;98399.19;4969638;28;20417;-69
2022/02/09 12:52:50;;;;;;;2.00;1.20;;;;;;;23.11;29.27;98397.16;4969009;28;20453;-69
2022/02/09 12:55:24;;;;;;;1.70;1.30;;;;;;;22.88;29.38;98408.22;4969654;28;20433;-70
2022/02/09 12:58:03;;;;;;;2.53;1.30;;;;;;;23.22;29.30;98393.06;4971989;28;20479;-70
2022/02/09 13:00:30;;;;;;;2.43;1.40;;;;;;;23.49;29.21;98395.72;4973229;28;20467;-70
2022/02/09 13:02:58;;;;;;;1.73;1.50;;;;;;;23.46;28.91;98392.44;4971265;28;20488;-69
2022/02/09 13:05:25;;;;;;;5.43;1.23;;;;;;;23.45;29.05;98387.31;4967134;28;20477;-69
2022/02/09 13:08:00;;;;;;;2.70;1.10;;;;;;;23.37;28.53;98382.97;4971773;28;20890;-69
2022/02/09 13:10:29;;;;;;;1.10;0.97;;;;;;;23.38;28.89;98379.28;4985058;28;20466;-69
2022/02/09 13:12:58;;;;;;;2.03;1.20;;;;;;;23.40;29.31;98373.72;4977011;28;20452;-69
2022/02/09 13:15:30;;;;;;;1.83;1.43;;;;;;;23.41;28.97;98370.84;4973579;28;20434;-69
2022/02/09 13:26:08;;;;;;;2.17;1.30;;;;;;;23.53;29.19;98362.19;5050504;28;20428;-69
2022/02/09 14:06:28;;;;;;;10.47;2.90;;;;;;;22.37;30.47;98333.66;5038406;28;20445;-70
2022/02/09 15:00:32;;;;;;;7.63;2.23;;;;;;;20.87;32.56;98313.50;5047726;28;20415;-68
2022/02/09 15:03:23;;;;;;;6.97;2.40;;;;;;;20.65;32.40;98312.66;5041304;28;20457;-69
2022/02/09 15:06:18;;;;;;;8.67;2.07;;;;;;;20.54;32.61;98313.19;5046316;28;20426;-68
2022/02/09 15:08:49;;;;;;;5.93;2.20;;;;;;;20.25;33.22;98309.59;5052093;28;20967;-67
2022/02/09 15:11:29;;;;;;;4.30;2.40;;;;;;;20.08;33.58;98315.13;5018449;28;20826;-69
2022/02/09 15:19:38;;;;;;;5.30;2.27;;;;;;;19.74;34.50;98305.88;5038069;28;20441;-68
2022/02/09 15:22:09;;;;;;;3.07;2.20;;;;;;;19.72;34.42;98304.44;5050984;28;20418;-70
2022/02/09 15:24:44;;;;;;;3.23;2.43;;;;;;;19.47;34.90;98305.50;5046856;28;20441;-69
2022/02/09 15:27:16;;;;;;;5.97;2.10;;;;;;;19.40;35.00;98309.09;5045877;28;20428;-68
2022/02/09 15:29:42;;;;;;;11.10;2.80;;;;;;;19.40;34.90;98312.59;5044561;28;20427;-68
2022/02/09 15:32:18;;;;;;;8.53;2.17;;;;;;;19.41;35.02;98308.88;5036172;28;20500;-69
2022/02/09 15:34:48;;;;;;;11.50;2.47;;;;;;;19.16;35.39;98306.47;5034887;28;20971;-68
2022/02/09 15:37:28;;;;;;;10.20;2.37;;;;;;;19.13;35.58;98301.53;5032943;28;20945;-68
2022/02/09 15:39:56;;;;;;;11.50;2.50;;;;;;;19.05;35.76;98296.28;5015910;28;20469;-68
2022/02/09 16:20:49;;;;;;;5.30;2.80;;;;;;;18.17;37.80;98288.63;5050749;28;20433;-68
2022/02/09 16:23:02;;;;;;;8.47;3.60;;;;;;;18.14;37.87;98286.34;5042037;28;20957;-68
2022/02/09 16:36:46;;;;;;;6.00;3.23;;;;;;;17.86;38.57;98294.72;5045129;28;20454;-68
2022/02/09 16:44:30;;;;;;;7.80;2.97;;;;;;;17.45;39.68;98294.84;5036344;28;20499;-67
2022/02/09 16:46:57;;;;;;;4.03;2.83;;;;;;;17.34;39.86;98293.38;5050373;28;20430;-68
2022/02/09 16:49:30;;;;;;;5.40;2.43;;;;;;;17.38;39.60;98293.91;5050467;28;20437;-69
2022/02/09 17:18:57;;;;;;;7.50;2.97;;;;;;;16.36;41.79;98301.16;4956733;28;20462;-67
2022/02/09 17:21:24;;;;;;;5.43;3.20;;;;;;;16.27;42.05;98302.13;5039736;28;20414;-68
2022/02/09 17:23:51;;;;;;;5.57;3.90;;;;;;;16.22;42.11;98299.16;5037703;28;20451;-67
2022/02/09 17:26:17;;;;;;;8.30;3.80;;;;;;;16.17;42.35;98293.50;5030440;28;20804;-68
2022/02/09 17:28:43;;;;;;;10.30;3.80;;;;;;;16.09;42.18;98302.25;5047595;28;20476;-68
2022/02/09 17:34:00;;;;;;;6.00;4.60;;;;;;;15.79;43.14;98302.59;5029956;28;20446;-67
2022/02/09 17:39:06;;;;;;;5.80;4.60;;;;;;;15.57;43.26;98298.69;5030261;28;21016;-68
2022/02/09 17:57:54;;;;;;;6.00;3.60;;;;;;;15.31;44.00;98306.66;5032017;28;20449;-69
2022/02/09 18:00:19;;;;;;;8.77;3.90;;;;;;;15.21;44.04;98304.13;5033647;28;20442;-69
2022/02/09 18:02:47;;;;;;;8.90;4.67;;;;;;;15.12;44.09;98299.78;5033141;28;20474;-68
2022/02/09 18:05:22;;;;;;;20.13;4.60;;;;;;;14.94;44.42;98300.63;5026657;28;20181;-69
2022/02/09 18:07:52;;;;;;;8.60;4.10;;;;;;;14.84;44.75;98307.81;5051481;28;20409;-68
2022/02/09 18:31:41;;;;;;;15.57;6.13;;;;;;;14.42;45.33;98309.22;5047838;28;20230;-69
2022/02/09 19:03:55;;;;;;;18.30;8.27;;;;;;;13.58;46.58;98298.72;5051967;28;20477;-67
2022/02/09 19:06:28;;;;;;;16.87;8.80;;;;;;;13.25;47.05;98306.13;5047159;28;20820;-69
2022/02/09 19:14:31;;;;;;;27.30;9.03;;;;;;;13.28;47.18;98299.78;5042840;28;20680;-68
2022/02/09 19:17:08;;;;;;;19.57;8.87;;;;;;;13.26;47.38;98291.19;5035131;28;20422;-68
2022/02/09 19:30:06;;;;;;;10.90;6.50;;;;;;;13.06;47.88;98291.22;5041411;28;20440;-68
2022/02/09 19:48:36;;;;;;;20.10;10.33;;;;;;;12.89;47.70;98285.72;5052110;28;21024;-69
2022/02/09 19:53:57;;;;;;;19.40;9.67;;;;;;;12.73;48.63;98281.00;5052996;28;20462;-69
2022/02/09 19:56:24;;;;;;;22.67;9.53;;;;;;;12.72;47.85;98279.38;5053241;28;20537;-68
2022/02/09 20:01:18;;;;;;;21.40;9.70;;;;;;;12.63;48.19;98269.66;5052542;28;20919;-69
2022/02/09 20:03:44;;;;;;;19.67;9.93;;;;;;;12.68;47.67;98277.13;5051531;28;20280;-69
2022/02/09 20:06:09;;;;;;;23.07;11.07;;;;;;;12.71;47.60;98275.09;5045851;28;20513;-69
2022/02/09 20:08:37;;;;;;;21.33;9.53;;;;;;;12.63;47.64;98269.66;5052164;28;20184;-69
2022/02/09 20:11:14;;;;;;;16.60;7.60;;;;;;;12.62;47.41;98265.38;5043384;28;20207;-68
2022/02/09 20:13:41;;;;;;;19.33;8.33;;;;;;;12.54;47.96;98267.88;5051006;28;20465;-69
2022/02/09 20:16:06;;;;;;;20.30;10.23;;;;;;;12.47;47.64;98264.97;5043879;28;20936;-68
2022/02/09 20:18:32;;;;;;;26.63;9.00;;;;;;;12.39;48.14;98265.66;5051537;28;20428;-69
2022/02/09 20:20:59;;;;;;;23.80;8.87;;;;;;;12.38;48.17;98265.81;5051786;28;20567;-69
2022/02/09 20:23:24;;;;;;;18.90;9.50;;;;;;;12.37;48.60;98258.88;5051473;28;20498;-68
2022/02/09 20:25:50;;;;;;;15.03;8.40;;;;;;;12.37;47.91;98256.25;5051673;28;20426;-69
2022/02/09 20:28:16;;;;;;;21.03;8.03;;;;;;;12.38;48.08;98258.75;5045396;28;20672;-70
2022/02/09 20:30:47;;;;;;;16.07;9.03;;;;;;;12.25;48.16;98255.56;5051452;28;20246;-69
2022/02/09 20:33:14;;;;;;;24.93;12.60;;;;;;;12.25;48.02;98261.66;5050999;28;20434;-70
2022/02/09 20:35:40;;;;;;;27.60;11.03;;;;;;;12.23;48.00;98268.00;5043532;28;20929;-69
2022/02/09 20:38:11;;;;;;;25.10;10.07;;;;;;;12.23;47.84;98262.75;5051654;28;20479;-71
2022/02/09 20:41:02;;;;;;;20.90;10.03;;;;;;;12.18;48.02;98262.34;5051902;28;20186;-69
2022/02/09 20:43:24;;;;;;;17.13;8.33;;;;;;;12.18;48.18;98267.59;5031747;28;20491;-70
2022/02/09 20:45:53;;;;;;;26.67;11.23;;;;;;;12.13;48.16;98263.56;5051406;28;20786;-69
2022/02/09 20:48:27;;;;;;;23.97;9.67;;;;;;;12.11;48.04;98268.13;5051511;28;20493;-69
2022/02/09 20:50:58;;;;;;;31.40;10.47;;;;;;;12.06;48.23;98261.63;5051402;28;20457;-69
2022/02/09 20:53:24;;;;;;;30.50;9.77;;;;;;;12.03;48.43;98267.16;5051660;28;20452;-71
2022/02/09 20:55:51;;;;;;;20.20;9.40;;;;;;;12.03;47.73;98267.97;5051282;28;20487;-70
2022/02/09 20:58:17;;;;;;;17.90;8.50;;;;;;;12.01;47.58;98269.09;5045929;28;20829;-70
2022/02/09 21:19:30;;;;;;;11.97;7.40;;;;;;;11.77;47.54;98255.31;5040681;28;20951;-69
2022/02/09 21:25:05;;;;;;;10.80;6.40;;;;;;;11.76;46.50;98258.91;5045956;28;20469;-68
2022/02/09 21:55:16;;;;;;;13.20;6.80;;;;;;;11.30;46.67;98250.56;5053683;28;20458;-69
2022/02/09 21:57:26;;;;;;;12.43;6.90;;;;;;;11.27;46.58;98240.38;5040101;28;20478;-70
2022/02/09 22:22:28;;;;;;;9.57;6.27;;;;;;;11.15;46.64;98221.25;5031907;28;20436;-68
2022/02/09 22:34:52;;;;;;;10.40;6.50;;;;;;;10.95;46.81;98214.25;5032870;28;20666;-70
2022/02/09 22:45:54;;;;;;;9.70;6.57;;;;;;;10.82;46.83;98204.78;5034135;28;20430;-69
2022/02/09 22:49:00;;;;;;;9.97;6.30;;;;;;;10.80;46.67;98205.84;5047401;28;20421;-69
2022/02/09 22:56:36;;;;;;;9.60;6.43;;;;;;;10.76;46.90;98207.91;5053375;28;20453;-69
2022/02/09 22:59:06;;;;;;;9.83;5.90;;;;;;;10.74;47.02;98205.44;5052448;28;20896;-69
2022/02/09 23:01:46;;;;;;;9.83;6.40;;;;;;;10.73;46.94;98208.16;5052893;28;20656;-69
2022/02/09 23:07:02;;;;;;;9.40;6.50;;;;;;;10.71;47.08;98197.81;5046737;28;20542;-69
2022/02/09 23:12:12;;;;;;;8.30;5.67;;;;;;;10.53;47.02;98194.94;5052108;28;20937;-69
2022/02/09 23:25:26;;;;;;;10.93;7.07;;;;;;;10.25;47.47;98191.94;5047263;28;20433;-69
2022/02/09 23:58:13;;;;;;;9.70;5.90;;;;;;;10.21;46.93;98180.03;5045548;28;20828;-69
